sensor_id;sensor_type;location;lat;lon;timestamp;temperature;humidity
18388;DHT22;9320;50.256;19.026;2022-08-25T00:00:17;19.90;99.90
18388;DHT22;9320;50.256;19.026;2022-08-25T00:02:47;19.90;99.90
18388;DHT22;9320;50.256;19.026;2022-08-25T00:05:24;19.80;99.90
18388;DHT22;9320;50.256;19.026;2022-08-25T00:07:55;19.70;99.90
18388;DHT22;9320;50.256;19.026;2022-08-25T00:10:23;19.80;99.90
18388;DHT22;9320;50.256;19.026;2022-08-25T00:12:51;19.80;99.90
18388;DHT22;9320;50.256;19.026;2022-08-25T00:15:19;19.80;99.90
18388;DHT22;9320;50.256;19.026;2022-08-25T00:17:49;19.80;99.90
18388;DHT22;9320;50.256;19.026;2022-08-25T00:20:18;19.90;99.90
18388;DHT22;9320;50.256;19.026;2022-08-25T00:22:46;20.00;99.90
18388;DHT22;9320;50.256;19.026;2022-08-25T00:25:15;20.00;99.90
18388;DHT22;9320;50.256;19.026;2022-08-25T00:27:43;20.00;99.90
18388;DHT22;9320;50.256;19.026;2022-08-25T00:30:12;20.00;99.90
18388;DHT22;9320;50.256;19.026;2022-08-25T00:32:43;20.00;99.90
18388;DHT22;9320;50.256;19.026;2022-08-25T00:35:25;20.00;99.90
18388;DHT22;9320;50.256;19.026;2022-08-25T00:37:53;20.10;99.90
18388;DHT22;9320;50.256;19.026;2022-08-25T00:40:23;20.10;99.90
18388;DHT22;9320;50.256;19.026;2022-08-25T00:42:52;20.00;99.90
18388;DHT22;9320;50.256;19.026;2022-08-25T00:45:20;20.10;99.90
18388;DHT22;9320;50.256;19.026;2022-08-25T00:47:48;20.10;99.90
18388;DHT22;9320;50.256;19.026;2022-08-25T00:50:17;20.20;99.90
18388;DHT22;9320;50.256;19.026;2022-08-25T00:52:50;20.10;99.90
18388;DHT22;9320;50.256;19.026;2022-08-25T00:55:23;20.10;99.90
18388;DHT22;9320;50.256;19.026;2022-08-25T00:57:54;20.10;99.90
18388;DHT22;9320;50.256;19.026;2022-08-25T01:00:26;20.10;99.90
18388;DHT22;9320;50.256;19.026;2022-08-25T01:02:54;20.10;99.90
18388;DHT22;9320;50.256;19.026;2022-08-25T01:05:24;20.10;99.90
18388;DHT22;9320;50.256;19.026;2022-08-25T01:07:55;20.00;99.90
18388;DHT22;9320;50.256;19.026;2022-08-25T01:10:25;20.10;99.90
18388;DHT22;9320;50.256;19.026;2022-08-25T01:13:00;20.10;99.90
18388;DHT22;9320;50.256;19.026;2022-08-25T01:15:30;20.10;99.90
18388;DHT22;9320;50.256;19.026;2022-08-25T01:17:58;20.20;99.90
18388;DHT22;9320;50.256;19.026;2022-08-25T01:20:29;20.20;99.90
18388;DHT22;9320;50.256;19.026;2022-08-25T01:22:59;20.20;99.90
18388;DHT22;9320;50.256;19.026;2022-08-25T01:25:34;20.20;99.90
18388;DHT22;9320;50.256;19.026;2022-08-25T01:28:05;20.20;99.90
18388;DHT22;9320;50.256;19.026;2022-08-25T01:30:33;20.20;99.90
18388;DHT22;9320;50.256;19.026;2022-08-25T01:33:03;20.20;99.90
18388;DHT22;9320;50.256;19.026;2022-08-25T01:35:31;20.10;99.90
18388;DHT22;9320;50.256;19.026;2022-08-25T01:38:02;20.10;99.90
18388;DHT22;9320;50.256;19.026;2022-08-25T01:40:31;20.10;99.90
18388;DHT22;9320;50.256;19.026;2022-08-25T01:43:06;20.00;99.90
18388;DHT22;9320;50.256;19.026;2022-08-25T01:45:40;20.10;99.90
18388;DHT22;9320;50.256;19.026;2022-08-25T01:48:10;20.10;99.90
18388;DHT22;9320;50.256;19.026;2022-08-25T01:50:38;20.00;99.90
18388;DHT22;9320;50.256;19.026;2022-08-25T01:53:16;20.00;99.90
18388;DHT22;9320;50.256;19.026;2022-08-25T01:55:45;20.00;99.90
18388;DHT22;9320;50.256;19.026;2022-08-25T01:58:21;20.00;99.90
18388;DHT22;9320;50.256;19.026;2022-08-25T02:00:51;19.90;99.90
18388;DHT22;9320;50.256;19.026;2022-08-25T02:03:23;19.80;99.90
18388;DHT22;9320;50.256;19.026;2022-08-25T02:05:52;19.80;99.90
18388;DHT22;9320;50.256;19.026;2022-08-25T02:08:23;19.70;99.90
18388;DHT22;9320;50.256;19.026;2022-08-25T02:10:52;19.80;99.90
18388;DHT22;9320;50.256;19.026;2022-08-25T02:13:21;19.80;99.90
18388;DHT22;9320;50.256;19.026;2022-08-25T02:15:57;19.80;99.90
18388;DHT22;9320;50.256;19.026;2022-08-25T02:18:26;19.80;99.90
18388;DHT22;9320;50.256;19.026;2022-08-25T02:20:54;19.80;99.90
18388;DHT22;9320;50.256;19.026;2022-08-25T02:23:24;19.80;99.90
18388;DHT22;9320;50.256;19.026;2022-08-25T02:25:52;19.90;99.90
18388;DHT22;9320;50.256;19.026;2022-08-25T02:28:20;19.80;99.90
18388;DHT22;9320;50.256;19.026;2022-08-25T02:30:48;19.80;99.90
18388;DHT22;9320;50.256;19.026;2022-08-25T02:33:24;19.90;99.90
18388;DHT22;9320;50.256;19.026;2022-08-25T02:35:55;19.90;99.90
18388;DHT22;9320;50.256;19.026;2022-08-25T02:38:24;19.90;99.90
18388;DHT22;9320;50.256;19.026;2022-08-25T02:40:53;19.80;99.90
18388;DHT22;9320;50.256;19.026;2022-08-25T02:43:22;19.80;99.90
18388;DHT22;9320;50.256;19.026;2022-08-25T02:45:50;19.80;99.90
18388;DHT22;9320;50.256;19.026;2022-08-25T02:48:18;19.70;99.90
18388;DHT22;9320;50.256;19.026;2022-08-25T02:50:50;19.60;99.90
18388;DHT22;9320;50.256;19.026;2022-08-25T02:53:19;19.60;99.90
18388;DHT22;9320;50.256;19.026;2022-08-25T02:55:48;19.60;99.90
18388;DHT22;9320;50.256;19.026;2022-08-25T02:58:16;19.70;99.90
18388;DHT22;9320;50.256;19.026;2022-08-25T03:00:45;19.60;99.90
18388;DHT22;9320;50.256;19.026;2022-08-25T03:03:14;19.60;99.90
18388;DHT22;9320;50.256;19.026;2022-08-25T03:05:42;19.60;99.90
18388;DHT22;9320;50.256;19.026;2022-08-25T03:08:11;19.50;99.90
18388;DHT22;9320;50.256;19.026;2022-08-25T03:10:39;19.50;99.90
18388;DHT22;9320;50.256;19.026;2022-08-25T03:13:08;19.50;99.90
18388;DHT22;9320;50.256;19.026;2022-08-25T03:15:36;19.50;99.90
18388;DHT22;9320;50.256;19.026;2022-08-25T03:18:04;19.50;99.90
18388;DHT22;9320;50.256;19.026;2022-08-25T03:20:34;19.50;99.90
18388;DHT22;9320;50.256;19.026;2022-08-25T03:23:03;19.60;99.90
18388;DHT22;9320;50.256;19.026;2022-08-25T03:25:32;19.60;99.90
18388;DHT22;9320;50.256;19.026;2022-08-25T03:28:19;19.60;99.90
18388;DHT22;9320;50.256;19.026;2022-08-25T03:30:55;19.70;99.90
18388;DHT22;9320;50.256;19.026;2022-08-25T03:33:24;19.70;99.90
18388;DHT22;9320;50.256;19.026;2022-08-25T03:35:52;19.70;99.90
18388;DHT22;9320;50.256;19.026;2022-08-25T03:38:21;19.70;99.90
18388;DHT22;9320;50.256;19.026;2022-08-25T03:40:49;19.60;99.90
18388;DHT22;9320;50.256;19.026;2022-08-25T03:43:19;19.60;99.90
18388;DHT22;9320;50.256;19.026;2022-08-25T03:45:48;19.60;99.90
18388;DHT22;9320;50.256;19.026;2022-08-25T03:48:16;19.60;99.90
18388;DHT22;9320;50.256;19.026;2022-08-25T03:50:47;19.60;99.90
18388;DHT22;9320;50.256;19.026;2022-08-25T03:53:18;19.60;99.90
18388;DHT22;9320;50.256;19.026;2022-08-25T03:55:47;19.70;99.90
18388;DHT22;9320;50.256;19.026;2022-08-25T03:58:15;19.70;99.90
18388;DHT22;9320;50.256;19.026;2022-08-25T04:00:45;19.70;99.90
18388;DHT22;9320;50.256;19.026;2022-08-25T04:03:13;19.70;99.90
18388;DHT22;9320;50.256;19.026;2022-08-25T04:05:41;19.70;99.90
18388;DHT22;9320;50.256;19.026;2022-08-25T04:08:10;19.80;99.90
18388;DHT22;9320;50.256;19.026;2022-08-25T04:10:38;19.70;99.90
18388;DHT22;9320;50.256;19.026;2022-08-25T04:13:06;19.70;99.90
18388;DHT22;9320;50.256;19.026;2022-08-25T04:15:34;19.80;99.90
18388;DHT22;9320;50.256;19.026;2022-08-25T04:18:04;19.80;99.90
18388;DHT22;9320;50.256;19.026;2022-08-25T04:20:32;19.80;99.90
18388;DHT22;9320;50.256;19.026;2022-08-25T04:23:00;19.80;99.90
18388;DHT22;9320;50.256;19.026;2022-08-25T04:25:29;19.80;99.90
18388;DHT22;9320;50.256;19.026;2022-08-25T04:27:57;19.90;99.90
18388;DHT22;9320;50.256;19.026;2022-08-25T04:30:25;19.90;99.90
18388;DHT22;9320;50.256;19.026;2022-08-25T04:32:53;20.00;99.90
18388;DHT22;9320;50.256;19.026;2022-08-25T04:35:22;20.10;99.90
18388;DHT22;9320;50.256;19.026;2022-08-25T04:37:50;20.10;99.90
18388;DHT22;9320;50.256;19.026;2022-08-25T04:40:18;20.10;99.90
18388;DHT22;9320;50.256;19.026;2022-08-25T04:42:55;20.10;99.90
18388;DHT22;9320;50.256;19.026;2022-08-25T04:45:23;20.10;99.90
18388;DHT22;9320;50.256;19.026;2022-08-25T04:47:51;20.20;99.90
18388;DHT22;9320;50.256;19.026;2022-08-25T04:50:22;20.20;99.90
18388;DHT22;9320;50.256;19.026;2022-08-25T04:52:51;20.30;99.90
18388;DHT22;9320;50.256;19.026;2022-08-25T04:55:19;20.40;99.90
18388;DHT22;9320;50.256;19.026;2022-08-25T04:57:47;20.50;99.90
18388;DHT22;9320;50.256;19.026;2022-08-25T05:00:16;20.60;99.90
18388;DHT22;9320;50.256;19.026;2022-08-25T05:02:44;20.60;99.90
18388;DHT22;9320;50.256;19.026;2022-08-25T05:05:12;20.50;99.90
18388;DHT22;9320;50.256;19.026;2022-08-25T05:07:42;20.60;99.90
18388;DHT22;9320;50.256;19.026;2022-08-25T05:10:10;20.70;99.90
18388;DHT22;9320;50.256;19.026;2022-08-25T05:12:38;20.70;99.90
18388;DHT22;9320;50.256;19.026;2022-08-25T05:15:07;20.70;99.90
18388;DHT22;9320;50.256;19.026;2022-08-25T05:17:49;20.80;99.90
18388;DHT22;9320;50.256;19.026;2022-08-25T05:20:22;20.70;99.90
18388;DHT22;9320;50.256;19.026;2022-08-25T05:22:51;20.80;99.90
18388;DHT22;9320;50.256;19.026;2022-08-25T05:25:19;20.80;99.90
18388;DHT22;9320;50.256;19.026;2022-08-25T05:27:48;20.80;99.90
18388;DHT22;9320;50.256;19.026;2022-08-25T05:30:16;20.80;99.90
18388;DHT22;9320;50.256;19.026;2022-08-25T05:32:44;20.80;99.90
18388;DHT22;9320;50.256;19.026;2022-08-25T05:35:12;20.90;99.90
18388;DHT22;9320;50.256;19.026;2022-08-25T05:37:41;20.80;99.90
18388;DHT22;9320;50.256;19.026;2022-08-25T05:40:11;20.90;99.90
18388;DHT22;9320;50.256;19.026;2022-08-25T05:42:40;20.90;99.90
18388;DHT22;9320;50.256;19.026;2022-08-25T05:45:08;21.00;99.90
18388;DHT22;9320;50.256;19.026;2022-08-25T05:47:46;21.10;99.90
18388;DHT22;9320;50.256;19.026;2022-08-25T05:50:15;21.00;99.90
18388;DHT22;9320;50.256;19.026;2022-08-25T05:52:43;21.10;99.90
18388;DHT22;9320;50.256;19.026;2022-08-25T05:55:13;21.20;99.90
18388;DHT22;9320;50.256;19.026;2022-08-25T05:57:42;21.30;99.90
18388;DHT22;9320;50.256;19.026;2022-08-25T06:00:11;21.40;99.90
18388;DHT22;9320;50.256;19.026;2022-08-25T06:02:39;21.50;99.90
18388;DHT22;9320;50.256;19.026;2022-08-25T06:05:16;21.60;99.90
18388;DHT22;9320;50.256;19.026;2022-08-25T06:07:44;21.60;99.90
18388;DHT22;9320;50.256;19.026;2022-08-25T06:10:15;21.70;99.90
18388;DHT22;9320;50.256;19.026;2022-08-25T06:12:44;21.80;99.90
18388;DHT22;9320;50.256;19.026;2022-08-25T06:15:13;21.90;99.90
18388;DHT22;9320;50.256;19.026;2022-08-25T06:17:42;21.80;99.90
18388;DHT22;9320;50.256;19.026;2022-08-25T06:20:12;21.70;99.90
18388;DHT22;9320;50.256;19.026;2022-08-25T06:22:41;21.70;99.90
18388;DHT22;9320;50.256;19.026;2022-08-25T06:25:11;21.60;99.90
18388;DHT22;9320;50.256;19.026;2022-08-25T06:27:41;21.70;99.90
18388;DHT22;9320;50.256;19.026;2022-08-25T06:30:13;21.80;99.90
18388;DHT22;9320;50.256;19.026;2022-08-25T06:32:43;21.80;99.90
18388;DHT22;9320;50.256;19.026;2022-08-25T06:35:15;21.80;99.90
18388;DHT22;9320;50.256;19.026;2022-08-25T06:37:44;21.90;99.90
18388;DHT22;9320;50.256;19.026;2022-08-25T06:40:13;21.90;99.90
18388;DHT22;9320;50.256;19.026;2022-08-25T06:42:46;22.00;99.90
18388;DHT22;9320;50.256;19.026;2022-08-25T06:45:15;22.00;99.90
18388;DHT22;9320;50.256;19.026;2022-08-25T06:47:43;22.10;99.90
18388;DHT22;9320;50.256;19.026;2022-08-25T06:50:11;22.20;99.90
18388;DHT22;9320;50.256;19.026;2022-08-25T06:52:39;22.30;99.90
18388;DHT22;9320;50.256;19.026;2022-08-25T06:55:09;22.40;99.90
18388;DHT22;9320;50.256;19.026;2022-08-25T06:57:37;22.40;99.90
18388;DHT22;9320;50.256;19.026;2022-08-25T07:00:08;22.40;99.90
18388;DHT22;9320;50.256;19.026;2022-08-25T07:02:38;22.40;99.90
18388;DHT22;9320;50.256;19.026;2022-08-25T07:05:07;22.60;99.90
18388;DHT22;9320;50.256;19.026;2022-08-25T07:07:39;22.70;99.90
18388;DHT22;9320;50.256;19.026;2022-08-25T07:10:09;22.70;99.90
18388;DHT22;9320;50.256;19.026;2022-08-25T07:12:38;22.80;99.90
18388;DHT22;9320;50.256;19.026;2022-08-25T07:15:08;22.90;99.90
18388;DHT22;9320;50.256;19.026;2022-08-25T07:17:46;23.00;99.90
18388;DHT22;9320;50.256;19.026;2022-08-25T07:20:15;23.10;99.90
18388;DHT22;9320;50.256;19.026;2022-08-25T07:22:45;23.10;99.90
18388;DHT22;9320;50.256;19.026;2022-08-25T07:25:13;23.10;99.90
18388;DHT22;9320;50.256;19.026;2022-08-25T07:27:44;23.10;99.90
18388;DHT22;9320;50.256;19.026;2022-08-25T07:30:15;23.20;99.90
18388;DHT22;9320;50.256;19.026;2022-08-25T07:32:43;23.20;99.90
18388;DHT22;9320;50.256;19.026;2022-08-25T07:35:11;23.30;99.90
18388;DHT22;9320;50.256;19.026;2022-08-25T07:37:46;23.50;99.90
18388;DHT22;9320;50.256;19.026;2022-08-25T07:40:17;23.50;99.90
18388;DHT22;9320;50.256;19.026;2022-08-25T07:42:47;23.60;99.90
18388;DHT22;9320;50.256;19.026;2022-08-25T07:45:18;23.70;99.90
18388;DHT22;9320;50.256;19.026;2022-08-25T07:47:48;23.80;99.90
18388;DHT22;9320;50.256;19.026;2022-08-25T07:50:20;23.80;99.90
18388;DHT22;9320;50.256;19.026;2022-08-25T07:52:48;23.90;99.90
18388;DHT22;9320;50.256;19.026;2022-08-25T07:55:31;24.00;99.90
18388;DHT22;9320;50.256;19.026;2022-08-25T07:58:03;24.00;99.90
18388;DHT22;9320;50.256;19.026;2022-08-25T08:00:35;24.00;99.90
18388;DHT22;9320;50.256;19.026;2022-08-25T08:03:04;24.10;99.90
18388;DHT22;9320;50.256;19.026;2022-08-25T08:05:40;24.10;99.90
18388;DHT22;9320;50.256;19.026;2022-08-25T08:08:08;24.20;99.90
18388;DHT22;9320;50.256;19.026;2022-08-25T08:10:37;24.20;99.90
18388;DHT22;9320;50.256;19.026;2022-08-25T08:13:25;24.40;99.90
18388;DHT22;9320;50.256;19.026;2022-08-25T08:15:55;24.50;99.90
18388;DHT22;9320;50.256;19.026;2022-08-25T08:18:23;24.70;99.90
18388;DHT22;9320;50.256;19.026;2022-08-25T08:20:51;24.70;99.90
18388;DHT22;9320;50.256;19.026;2022-08-25T08:23:19;24.70;99.90
18388;DHT22;9320;50.256;19.026;2022-08-25T08:25:53;24.70;99.90
18388;DHT22;9320;50.256;19.026;2022-08-25T08:28:23;24.70;99.90
18388;DHT22;9320;50.256;19.026;2022-08-25T08:30:54;24.80;99.90
18388;DHT22;9320;50.256;19.026;2022-08-25T08:33:23;25.00;99.90
18388;DHT22;9320;50.256;19.026;2022-08-25T08:35:58;25.00;99.90
18388;DHT22;9320;50.256;19.026;2022-08-25T08:38:31;25.20;99.90
18388;DHT22;9320;50.256;19.026;2022-08-25T08:41:07;25.30;99.90
18388;DHT22;9320;50.256;19.026;2022-08-25T08:44:08;25.40;99.90
18388;DHT22;9320;50.256;19.026;2022-08-25T08:46:48;25.50;99.90
18388;DHT22;9320;50.256;19.026;2022-08-25T08:49:28;25.50;99.90
18388;DHT22;9320;50.256;19.026;2022-08-25T08:52:00;25.90;99.90
18388;DHT22;9320;50.256;19.026;2022-08-25T08:54:31;26.10;99.90
18388;DHT22;9320;50.256;19.026;2022-08-25T08:57:05;26.20;99.90
18388;DHT22;9320;50.256;19.026;2022-08-25T08:59:40;26.60;99.90
18388;DHT22;9320;50.256;19.026;2022-08-25T09:02:22;27.00;99.90
18388;DHT22;9320;50.256;19.026;2022-08-25T09:05:14;27.10;99.90
18388;DHT22;9320;50.256;19.026;2022-08-25T09:07:48;26.90;99.90
18388;DHT22;9320;50.256;19.026;2022-08-25T09:10:22;26.80;99.90
18388;DHT22;9320;50.256;19.026;2022-08-25T09:12:58;26.90;99.90
18388;DHT22;9320;50.256;19.026;2022-08-25T09:15:37;26.90;99.90
18388;DHT22;9320;50.256;19.026;2022-08-25T09:18:36;26.90;99.90
18388;DHT22;9320;50.256;19.026;2022-08-25T09:21:24;27.00;99.90
18388;DHT22;9320;50.256;19.026;2022-08-25T09:24:15;27.30;99.70
18388;DHT22;9320;50.256;19.026;2022-08-25T09:26:52;27.50;98.80
18388;DHT22;9320;50.256;19.026;2022-08-25T09:29:44;27.70;98.20
18388;DHT22;9320;50.256;19.026;2022-08-25T09:32:15;28.50;97.00
18388;DHT22;9320;50.256;19.026;2022-08-25T09:34:51;29.80;93.80
18388;DHT22;9320;50.256;19.026;2022-08-25T09:37:23;30.60;91.40
18388;DHT22;9320;50.256;19.026;2022-08-25T09:39:51;30.50;90.60
18388;DHT22;9320;50.256;19.026;2022-08-25T09:42:21;30.80;90.20
18388;DHT22;9320;50.256;19.026;2022-08-25T09:44:53;32.10;84.90
18388;DHT22;9320;50.256;19.026;2022-08-25T09:47:23;31.60;83.80
18388;DHT22;9320;50.256;19.026;2022-08-25T09:49:58;32.10;81.80
18388;DHT22;9320;50.256;19.026;2022-08-25T09:52:32;32.70;79.50
18388;DHT22;9320;50.256;19.026;2022-08-25T09:55:21;33.50;76.90
18388;DHT22;9320;50.256;19.026;2022-08-25T09:57:52;34.50;72.60
18388;DHT22;9320;50.256;19.026;2022-08-25T10:00:24;34.70;70.70
18388;DHT22;9320;50.256;19.026;2022-08-25T10:03:20;34.50;68.70
18388;DHT22;9320;50.256;19.026;2022-08-25T10:06:03;34.50;67.20
18388;DHT22;9320;50.256;19.026;2022-08-25T10:08:34;35.70;66.00
18388;DHT22;9320;50.256;19.026;2022-08-25T10:11:07;36.20;62.50
18388;DHT22;9320;50.256;19.026;2022-08-25T10:13:42;37.80;59.90
18388;DHT22;9320;50.256;19.026;2022-08-25T10:16:22;39.60;57.30
18388;DHT22;9320;50.256;19.026;2022-08-25T10:19:03;40.10;55.10
18388;DHT22;9320;50.256;19.026;2022-08-25T10:21:35;38.70;57.00
18388;DHT22;9320;50.256;19.026;2022-08-25T10:24:06;38.20;55.30
18388;DHT22;9320;50.256;19.026;2022-08-25T10:26:50;38.40;56.20
18388;DHT22;9320;50.256;19.026;2022-08-25T10:29:31;38.80;52.60
18388;DHT22;9320;50.256;19.026;2022-08-25T10:32:04;39.70;52.40
18388;DHT22;9320;50.256;19.026;2022-08-25T10:34:44;37.60;54.70
18388;DHT22;9320;50.256;19.026;2022-08-25T10:37:26;36.50;57.90
18388;DHT22;9320;50.256;19.026;2022-08-25T10:40:06;35.50;59.80
18388;DHT22;9320;50.256;19.026;2022-08-25T10:42:42;34.00;62.30
18388;DHT22;9320;50.256;19.026;2022-08-25T10:45:17;33.00;64.80
18388;DHT22;9320;50.256;19.026;2022-08-25T10:48:32;32.00;65.50
18388;DHT22;9320;50.256;19.026;2022-08-25T10:51:14;31.70;68.80
18388;DHT22;9320;50.256;19.026;2022-08-25T10:53:56;31.20;70.20
18388;DHT22;9320;50.256;19.026;2022-08-25T10:56:32;31.20;70.50
18388;DHT22;9320;50.256;19.026;2022-08-25T10:59:38;31.20;70.80
18388;DHT22;9320;50.256;19.026;2022-08-25T11:05:15;30.80;72.60
18388;DHT22;9320;50.256;19.026;2022-08-25T11:07:53;30.80;71.90
18388;DHT22;9320;50.256;19.026;2022-08-25T11:10:30;30.70;72.30
18388;DHT22;9320;50.256;19.026;2022-08-25T11:13:09;30.40;73.80
18388;DHT22;9320;50.256;19.026;2022-08-25T11:15:46;30.50;73.40
18388;DHT22;9320;50.256;19.026;2022-08-25T11:18:43;30.60;73.10
18388;DHT22;9320;50.256;19.026;2022-08-25T11:21:16;30.50;72.00
18388;DHT22;9320;50.256;19.026;2022-08-25T11:23:54;30.20;72.70
18388;DHT22;9320;50.256;19.026;2022-08-25T11:26:28;30.00;73.90
18388;DHT22;9320;50.256;19.026;2022-08-25T11:29:08;29.90;74.70
18388;DHT22;9320;50.256;19.026;2022-08-25T11:31:39;30.20;75.10
18388;DHT22;9320;50.256;19.026;2022-08-25T11:34:10;30.20;74.40
18388;DHT22;9320;50.256;19.026;2022-08-25T11:36:42;30.00;75.00
18388;DHT22;9320;50.256;19.026;2022-08-25T11:39:20;29.90;74.60
18388;DHT22;9320;50.256;19.026;2022-08-25T11:41:59;29.90;75.30
18388;DHT22;9320;50.256;19.026;2022-08-25T11:44:45;29.80;73.80
18388;DHT22;9320;50.256;19.026;2022-08-25T11:47:32;29.90;72.40
18388;DHT22;9320;50.256;19.026;2022-08-25T11:50:06;29.90;73.20
18388;DHT22;9320;50.256;19.026;2022-08-25T11:52:42;29.90;70.50
18388;DHT22;9320;50.256;19.026;2022-08-25T11:55:14;29.80;70.90
18388;DHT22;9320;50.256;19.026;2022-08-25T11:57:52;29.80;70.90
18388;DHT22;9320;50.256;19.026;2022-08-25T12:00:43;29.90;70.60
18388;DHT22;9320;50.256;19.026;2022-08-25T12:03:48;29.70;70.70
18388;DHT22;9320;50.256;19.026;2022-08-25T12:06:20;29.70;70.00
18388;DHT22;9320;50.256;19.026;2022-08-25T12:08:52;29.60;70.40
18388;DHT22;9320;50.256;19.026;2022-08-25T12:11:50;29.60;70.40
18388;DHT22;9320;50.256;19.026;2022-08-25T12:14:41;29.60;69.50
18388;DHT22;9320;50.256;19.026;2022-08-25T12:17:23;29.60;70.80
18388;DHT22;9320;50.256;19.026;2022-08-25T12:19:57;29.80;70.30
18388;DHT22;9320;50.256;19.026;2022-08-25T12:22:41;29.90;69.70
18388;DHT22;9320;50.256;19.026;2022-08-25T12:25:48;29.70;70.60
18388;DHT22;9320;50.256;19.026;2022-08-25T12:28:40;29.40;71.70
18388;DHT22;9320;50.256;19.026;2022-08-25T12:31:30;29.20;71.80
18388;DHT22;9320;50.256;19.026;2022-08-25T12:34:16;29.20;72.10
18388;DHT22;9320;50.256;19.026;2022-08-25T12:36:58;29.10;71.10
18388;DHT22;9320;50.256;19.026;2022-08-25T12:39:35;29.00;71.30
18388;DHT22;9320;50.256;19.026;2022-08-25T12:42:05;29.10;71.10
18388;DHT22;9320;50.256;19.026;2022-08-25T12:44:39;29.30;70.90
18388;DHT22;9320;50.256;19.026;2022-08-25T12:47:26;29.50;71.70
18388;DHT22;9320;50.256;19.026;2022-08-25T12:50:30;29.40;70.80
18388;DHT22;9320;50.256;19.026;2022-08-25T12:53:14;29.40;71.10
18388;DHT22;9320;50.256;19.026;2022-08-25T12:55:47;29.40;71.10
18388;DHT22;9320;50.256;19.026;2022-08-25T12:58:16;29.50;70.10
18388;DHT22;9320;50.256;19.026;2022-08-25T13:00:55;29.50;70.70
18388;DHT22;9320;50.256;19.026;2022-08-25T13:06:51;29.60;70.00
18388;DHT22;9320;50.256;19.026;2022-08-25T13:12:45;29.60;69.90
18388;DHT22;9320;50.256;19.026;2022-08-25T13:15:25;29.60;68.80
18388;DHT22;9320;50.256;19.026;2022-08-25T13:17:56;29.60;68.80
18388;DHT22;9320;50.256;19.026;2022-08-25T13:20:39;29.60;69.00
18388;DHT22;9320;50.256;19.026;2022-08-25T13:23:11;29.70;69.20
18388;DHT22;9320;50.256;19.026;2022-08-25T13:25:47;29.50;68.80
18388;DHT22;9320;50.256;19.026;2022-08-25T13:28:23;29.40;69.10
18388;DHT22;9320;50.256;19.026;2022-08-25T13:31:01;29.40;68.20
18388;DHT22;9320;50.256;19.026;2022-08-25T13:33:30;29.40;65.50
18388;DHT22;9320;50.256;19.026;2022-08-25T13:36:00;29.40;64.90
18388;DHT22;9320;50.256;19.026;2022-08-25T13:38:47;29.40;64.20
18388;DHT22;9320;50.256;19.026;2022-08-25T13:41:21;29.40;63.50
18388;DHT22;9320;50.256;19.026;2022-08-25T13:43:55;29.40;63.70
18388;DHT22;9320;50.256;19.026;2022-08-25T13:46:26;29.50;63.30
18388;DHT22;9320;50.256;19.026;2022-08-25T13:49:02;29.60;63.60
18388;DHT22;9320;50.256;19.026;2022-08-25T13:51:32;29.60;63.80
18388;DHT22;9320;50.256;19.026;2022-08-25T13:54:03;29.60;63.80
18388;DHT22;9320;50.256;19.026;2022-08-25T13:56:34;29.60;63.90
18388;DHT22;9320;50.256;19.026;2022-08-25T13:59:21;29.60;62.40
18388;DHT22;9320;50.256;19.026;2022-08-25T14:01:50;29.60;61.10
18388;DHT22;9320;50.256;19.026;2022-08-25T14:04:27;29.70;62.00
18388;DHT22;9320;50.256;19.026;2022-08-25T14:07:05;29.70;61.30
18388;DHT22;9320;50.256;19.026;2022-08-25T14:09:43;29.70;62.10
18388;DHT22;9320;50.256;19.026;2022-08-25T14:12:26;29.70;62.80
18388;DHT22;9320;50.256;19.026;2022-08-25T14:15:00;29.60;62.60
18388;DHT22;9320;50.256;19.026;2022-08-25T14:17:29;29.60;61.30
18388;DHT22;9320;50.256;19.026;2022-08-25T14:20:16;29.60;61.90
18388;DHT22;9320;50.256;19.026;2022-08-25T14:22:53;29.60;62.30
18388;DHT22;9320;50.256;19.026;2022-08-25T14:25:25;29.60;61.80
18388;DHT22;9320;50.256;19.026;2022-08-25T14:27:56;29.60;61.30
18388;DHT22;9320;50.256;19.026;2022-08-25T14:30:45;29.60;60.80
18388;DHT22;9320;50.256;19.026;2022-08-25T14:33:19;29.50;60.70
18388;DHT22;9320;50.256;19.026;2022-08-25T14:35:52;29.50;60.90
18388;DHT22;9320;50.256;19.026;2022-08-25T14:38:21;29.50;60.50
18388;DHT22;9320;50.256;19.026;2022-08-25T14:40:51;29.50;60.20
18388;DHT22;9320;50.256;19.026;2022-08-25T14:43:19;29.60;59.80
18388;DHT22;9320;50.256;19.026;2022-08-25T14:45:57;29.60;61.20
18388;DHT22;9320;50.256;19.026;2022-08-25T14:48:31;29.50;60.50
18388;DHT22;9320;50.256;19.026;2022-08-25T14:51:00;29.40;61.50
18388;DHT22;9320;50.256;19.026;2022-08-25T14:53:31;29.40;62.20
18388;DHT22;9320;50.256;19.026;2022-08-25T14:56:01;29.40;61.60
18388;DHT22;9320;50.256;19.026;2022-08-25T14:58:35;29.30;61.30
18388;DHT22;9320;50.256;19.026;2022-08-25T15:01:21;29.30;61.30
18388;DHT22;9320;50.256;19.026;2022-08-25T15:04:00;29.30;60.50
18388;DHT22;9320;50.256;19.026;2022-08-25T15:06:29;29.30;59.50
18388;DHT22;9320;50.256;19.026;2022-08-25T15:08:57;29.20;60.20
18388;DHT22;9320;50.256;19.026;2022-08-25T15:11:43;29.20;60.50
18388;DHT22;9320;50.256;19.026;2022-08-25T15:14:13;29.10;61.30
18388;DHT22;9320;50.256;19.026;2022-08-25T15:16:45;29.10;61.30
18388;DHT22;9320;50.256;19.026;2022-08-25T15:19:17;29.10;61.70
18388;DHT22;9320;50.256;19.026;2022-08-25T15:21:46;29.10;61.20
18388;DHT22;9320;50.256;19.026;2022-08-25T15:24:16;29.00;61.50
18388;DHT22;9320;50.256;19.026;2022-08-25T15:26:48;29.10;61.20
18388;DHT22;9320;50.256;19.026;2022-08-25T15:29:23;29.00;60.70
18388;DHT22;9320;50.256;19.026;2022-08-25T15:31:53;28.90;61.00
18388;DHT22;9320;50.256;19.026;2022-08-25T15:34:21;29.00;61.30
18388;DHT22;9320;50.256;19.026;2022-08-25T15:36:49;28.90;62.00
18388;DHT22;9320;50.256;19.026;2022-08-25T15:39:18;28.90;61.30
18388;DHT22;9320;50.256;19.026;2022-08-25T15:41:48;28.80;60.80
18388;DHT22;9320;50.256;19.026;2022-08-25T15:44:18;28.80;60.40
18388;DHT22;9320;50.256;19.026;2022-08-25T15:46:49;28.80;61.10
18388;DHT22;9320;50.256;19.026;2022-08-25T15:49:18;28.80;61.80
18388;DHT22;9320;50.256;19.026;2022-08-25T15:51:50;28.80;62.30
18388;DHT22;9320;50.256;19.026;2022-08-25T15:54:20;28.70;62.20
18388;DHT22;9320;50.256;19.026;2022-08-25T15:56:51;28.70;62.50
18388;DHT22;9320;50.256;19.026;2022-08-25T15:59:21;28.60;62.70
18388;DHT22;9320;50.256;19.026;2022-08-25T16:01:51;28.60;63.00
18388;DHT22;9320;50.256;19.026;2022-08-25T16:04:20;28.60;62.90
18388;DHT22;9320;50.256;19.026;2022-08-25T16:06:49;28.60;63.70
18388;DHT22;9320;50.256;19.026;2022-08-25T16:09:17;28.60;63.20
18388;DHT22;9320;50.256;19.026;2022-08-25T16:11:50;28.60;64.50
18388;DHT22;9320;50.256;19.026;2022-08-25T16:14:24;28.60;63.90
18388;DHT22;9320;50.256;19.026;2022-08-25T16:16:53;28.50;64.40